createdAt,value
2022-09-30T00:05:00.401Z,16.41
2022-09-30T00:10:24.853Z,16.40
2022-09-30T00:15:51.181Z,16.38
2022-09-30T00:21:18.129Z,16.36
2022-09-30T00:26:43.180Z,16.34
2022-09-30T00:32:07.627Z,16.33
2022-09-30T00:37:34.441Z,16.33
2022-09-30T00:43:00.114Z,16.38
2022-09-30T00:48:31.760Z,16.47
2022-09-30T00:54:01.942Z,16.54
2022-09-30T00:59:33.318Z,16.51
2022-09-30T01:04:58.505Z,16.48
2022-09-30T01:10:27.200Z,16.47
2022-09-30T01:16:30.644Z,16.43
2022-09-30T01:22:22.596Z,16.46
2022-09-30T01:28:14.183Z,16.44
2022-09-30T01:33:49.574Z,16.47
2022-09-30T01:39:27.922Z,16.42
2022-09-30T01:45:03.334Z,16.29
2022-09-30T01:50:41.150Z,16.21
2022-09-30T01:56:13.414Z,16.29
2022-09-30T02:01:40.900Z,16.26
2022-09-30T02:07:11.570Z,16.15
2022-09-30T02:12:45.716Z,16.03
2022-09-30T02:18:19.914Z,15.91
2022-09-30T02:23:50.546Z,15.82
2022-09-30T02:29:19.443Z,15.66
2022-09-30T02:34:48.794Z,15.58
2022-09-30T02:40:22.984Z,15.50
2022-09-30T02:45:52.543Z,15.56
2022-09-30T02:51:23.246Z,15.63
2022-09-30T02:56:55.651Z,15.72
2022-09-30T03:02:21.555Z,15.79
2022-09-30T03:07:47.933Z,15.81
2022-09-30T03:13:29.430Z,15.90
2022-09-30T03:19:09.977Z,15.99
2022-09-30T03:24:56.033Z,16.07
2022-09-30T03:30:27.009Z,16.15
2022-09-30T03:36:00.434Z,16.24
2022-09-30T03:41:33.988Z,16.30
2022-09-30T03:47:05.140Z,16.35
2022-09-30T03:52:33.497Z,16.45
2022-09-30T03:57:58.493Z,16.50
2022-09-30T04:03:24.495Z,16.59
2022-09-30T04:08:49.381Z,16.67
2022-09-30T04:14:15.146Z,16.76
2022-09-30T04:19:43.179Z,16.87
2022-09-30T04:25:08.880Z,16.92
2022-09-30T04:30:33.820Z,16.93
2022-09-30T04:36:01.151Z,16.97
2022-09-30T04:41:26.954Z,17.02
2022-09-30T04:46:52.610Z,17.09
2022-09-30T04:52:20.215Z,17.15
2022-09-30T04:57:47.157Z,17.20
2022-09-30T05:03:11.137Z,17.20
2022-09-30T05:08:38.835Z,17.14
2022-09-30T05:14:09.899Z,17.10
2022-09-30T05:19:34.488Z,17.11
2022-09-30T05:25:00.009Z,17.12
2022-09-30T05:30:24.188Z,17.13
2022-09-30T05:35:48.297Z,17.21
2022-09-30T05:41:15.603Z,17.25
2022-09-30T05:46:39.767Z,17.24
2022-09-30T05:52:04.122Z,17.31
2022-09-30T05:57:30.168Z,17.25
2022-09-30T06:02:54.948Z,17.24
2022-09-30T06:08:18.934Z,17.24
2022-09-30T06:13:45.613Z,17.22
2022-09-30T06:19:14.834Z,17.19
2022-09-30T06:24:39.693Z,17.19
2022-09-30T06:30:08.310Z,17.21
2022-09-30T06:35:34.114Z,17.14
2022-09-30T06:41:00.320Z,17.24
2022-09-30T06:46:30.854Z,17.20
2022-09-30T06:51:55.507Z,17.21
2022-09-30T06:57:22.705Z,17.26
2022-09-30T07:02:48.779Z,17.35
2022-09-30T07:08:13.838Z,17.52
2022-09-30T07:13:38.412Z,17.94
2022-09-30T07:19:06.906Z,18.88
2022-09-30T07:24:31.057Z,19.67
2022-09-30T07:30:09.242Z,20.49
2022-09-30T07:35:38.089Z,19.80
2022-09-30T07:41:06.871Z,19.55
2022-09-30T07:46:33.202Z,19.41
2022-09-30T07:51:59.738Z,19.28
2022-09-30T07:57:23.666Z,19.27
2022-09-30T08:02:49.443Z,19.10
2022-09-30T08:08:16.237Z,19.41
2022-09-30T08:13:41.061Z,19.59
2022-09-30T08:19:06.072Z,19.69
2022-09-30T08:24:31.611Z,19.84
2022-09-30T08:29:59.182Z,20.00
2022-09-30T08:35:24.731Z,19.48
2022-09-30T08:41:03.529Z,19.38
2022-09-30T08:46:42.655Z,19.43
2022-09-30T08:52:24.473Z,19.12
2022-09-30T08:57:57.798Z,18.66
2022-09-30T09:03:31.025Z,18.10
2022-09-30T09:09:12.668Z,17.91
2022-09-30T09:14:53.065Z,17.83
2022-09-30T09:20:20.268Z,17.70
2022-09-30T09:25:46.382Z,17.53
2022-09-30T09:31:17.987Z,17.42
2022-09-30T09:36:56.901Z,17.35
2022-09-30T09:42:50.392Z,17.30
2022-09-30T09:48:17.510Z,17.00
2022-09-30T09:53:48.324Z,16.99
2022-09-30T09:59:18.207Z,17.05
2022-09-30T10:04:59.943Z,17.13
2022-09-30T10:10:25.882Z,17.16
2022-09-30T10:15:52.130Z,17.19
2022-09-30T10:21:23.304Z,17.27
2022-09-30T10:26:49.333Z,17.48
2022-09-30T10:32:14.865Z,17.71
2022-09-30T10:37:52.647Z,18.19
2022-09-30T10:43:26.425Z,19.00
2022-09-30T10:48:54.351Z,19.31
2022-09-30T10:54:50.314Z,19.47
2022-09-30T11:00:18.887Z,19.24
2022-09-30T11:05:46.399Z,19.59
2022-09-30T11:11:17.022Z,20.19
2022-09-30T11:16:48.684Z,20.48
2022-09-30T11:22:29.396Z,20.60
2022-09-30T11:28:09.527Z,21.04
2022-09-30T11:33:59.167Z,21.51
2022-09-30T11:39:56.290Z,21.66
2022-09-30T11:45:35.974Z,21.78
2022-09-30T11:51:11.609Z,21.91
2022-09-30T11:56:47.065Z,21.98
2022-09-30T12:02:32.472Z,22.10
2022-09-30T12:08:04.400Z,22.49
2022-09-30T12:13:33.393Z,22.87
2022-09-30T12:19:05.506Z,22.95
2022-09-30T12:24:36.874Z,22.65
2022-09-30T12:30:21.084Z,23.05
2022-09-30T12:36:10.800Z,23.29
2022-09-30T12:41:55.005Z,23.26
2022-09-30T12:47:35.684Z,23.17
2022-09-30T12:53:14.132Z,23.05
2022-09-30T12:58:45.324Z,22.75
2022-09-30T13:04:18.742Z,22.69
2022-09-30T13:10:00.645Z,22.60
2022-09-30T13:15:43.575Z,22.69
2022-09-30T13:21:26.778Z,22.85
2022-09-30T13:27:09.553Z,23.19
2022-09-30T13:32:37.163Z,22.98
2022-09-30T13:38:16.919Z,23.06
2022-09-30T13:43:46.551Z,23.22
2022-09-30T13:49:16.267Z,23.30
2022-09-30T13:54:47.767Z,23.61
2022-09-30T14:00:18.282Z,24.04
2022-09-30T14:06:06.349Z,24.28
2022-09-30T14:11:53.406Z,23.69
2022-09-30T14:17:34.938Z,23.18
2022-09-30T14:23:01.856Z,22.98
2022-09-30T14:28:34.720Z,22.73
2022-09-30T14:34:02.809Z,22.41
2022-09-30T14:39:32.132Z,22.16
2022-09-30T14:45:04.629Z,21.85
2022-09-30T14:50:36.465Z,21.64
2022-09-30T14:56:02.379Z,21.54
2022-09-30T15:01:32.488Z,21.42
2022-09-30T15:07:01.287Z,21.34
2022-09-30T15:12:26.840Z,21.18
2022-09-30T15:17:54.560Z,21.14
2022-09-30T15:23:25.388Z,21.17
2022-09-30T15:28:49.804Z,20.96
2022-09-30T15:34:20.478Z,20.68
2022-09-30T15:40:07.711Z,20.50
2022-09-30T15:45:37.048Z,20.40
2022-09-30T15:51:02.072Z,20.35
2022-09-30T15:56:34.983Z,20.33
2022-09-30T16:02:02.206Z,20.23
2022-09-30T16:07:29.016Z,20.05
2022-09-30T16:12:54.781Z,19.89
2022-09-30T16:18:24.914Z,19.83
2022-09-30T16:23:49.213Z,19.77
2022-09-30T16:29:17.712Z,19.72
2022-09-30T16:34:42.368Z,19.71
2022-09-30T16:40:19.728Z,19.62
2022-09-30T16:45:45.335Z,19.63
2022-09-30T16:51:15.421Z,19.64
2022-09-30T16:56:40.499Z,19.62
2022-09-30T17:02:06.663Z,19.60
2022-09-30T17:07:31.880Z,19.57
2022-09-30T17:13:00.111Z,19.54
2022-09-30T17:18:26.078Z,19.53
2022-09-30T17:23:54.119Z,19.54
2022-09-30T17:29:33.460Z,19.58
2022-09-30T17:34:59.055Z,19.56
2022-09-30T17:40:41.346Z,19.56
2022-09-30T17:46:06.253Z,19.59
2022-09-30T17:51:31.737Z,19.63
2022-09-30T17:56:57.181Z,19.65
2022-09-30T18:02:21.324Z,19.64
2022-09-30T18:07:47.749Z,19.63
2022-09-30T18:13:11.997Z,19.60
2022-09-30T18:18:37.259Z,19.61
2022-09-30T18:24:08.031Z,19.64
2022-09-30T18:29:33.596Z,19.71
2022-09-30T18:34:58.985Z,19.78
2022-09-30T18:40:27.018Z,19.84
2022-09-30T18:45:56.590Z,19.90
2022-09-30T18:51:21.545Z,19.82
2022-09-30T18:56:48.729Z,19.67
2022-09-30T19:02:15.777Z,19.53
2022-09-30T19:07:41.067Z,19.41
2022-09-30T19:13:06.317Z,19.36
2022-09-30T19:18:31.261Z,19.18
2022-09-30T19:23:58.333Z,19.03
2022-09-30T19:29:24.997Z,18.89
2022-09-30T19:35:00.108Z,18.90
2022-09-30T19:40:27.511Z,18.83
2022-09-30T19:45:57.070Z,18.82
2022-09-30T19:51:21.312Z,18.84
2022-09-30T19:56:45.928Z,18.77
2022-09-30T20:02:12.737Z,18.67
2022-09-30T20:07:36.812Z,18.66
2022-09-30T20:13:00.874Z,18.63
2022-09-30T20:18:26.365Z,18.59
2022-09-30T20:23:51.825Z,18.51
2022-09-30T20:29:18.411Z,18.48
2022-09-30T20:34:45.486Z,18.41
2022-09-30T20:40:10.886Z,18.34
2022-09-30T20:45:35.576Z,18.31
2022-09-30T20:51:01.954Z,18.25
2022-09-30T20:56:44.076Z,18.17
2022-09-30T21:02:14.168Z,18.01
2022-09-30T21:07:39.680Z,17.83
2022-09-30T21:13:10.141Z,17.71
2022-09-30T21:18:34.336Z,17.64
2022-09-30T21:24:01.433Z,17.55
2022-09-30T21:29:27.199Z,17.51
2022-09-30T21:34:53.207Z,17.49
2022-09-30T21:40:20.053Z,17.56
2022-09-30T21:45:45.313Z,17.61
2022-09-30T21:51:10.723Z,17.56
2022-09-30T21:56:37.023Z,17.52
2022-09-30T22:02:01.825Z,17.52
2022-09-30T22:07:27.668Z,17.50
2022-09-30T22:12:53.508Z,17.68
2022-09-30T22:18:19.498Z,17.73
2022-09-30T22:23:46.840Z,17.82
2022-09-30T22:29:13.515Z,18.05
2022-09-30T22:35:09.839Z,18.16
2022-09-30T22:40:34.862Z,18.23
2022-09-30T22:46:05.331Z,18.23
2022-09-30T22:51:30.630Z,18.09
2022-09-30T22:56:55.331Z,17.93
2022-09-30T23:02:23.284Z,17.81
2022-09-30T23:07:48.508Z,17.74
2022-09-30T23:13:13.430Z,17.63
2022-09-30T23:18:41.398Z,17.63
2022-09-30T23:24:06.033Z,17.68
2022-09-30T23:29:31.118Z,17.77
2022-09-30T23:34:57.751Z,17.70
2022-09-30T23:40:22.274Z,17.64
2022-09-30T23:45:48.325Z,17.59
2022-09-30T23:51:15.080Z,17.44
2022-09-30T23:56:41.208Z,17.37
